Terminal Aerodrome Forecast
Issued by NWS La Crosse, WI

Home | Current Version | Previous Version | Text Only | Print | Product List | Glossary On
Versions: 1 2 3 4 5 6 7 8 9 10 11 12 13 14 15 16 17 18 19 20 21 22 23 24 25 26 27 28 29 30 31
000
FTUS43 KARX 260530
TAFLSE
TAF
KLSE 260530Z 2606/2706 11004KT P6SM BKN100
     FM260900 14004KT P6SM BKN050
     FM261200 VRB03KT 5SM BR OVC015
     FM261800 32004KT P6SM OVC012
     FM270400 35004KT 5SM BR OVC008=

USA.gov is the U.S. government's official web portal to all federal, state and local government web resources and services.